createdAt,value
2019-04-06T00:00:34.753Z,25.70
2019-04-06T00:03:02.356Z,26.85
2019-04-06T00:05:30.790Z,26.45
2019-04-06T00:07:58.367Z,27.02
2019-04-06T00:10:26.177Z,25.92
2019-04-06T00:12:53.794Z,26.40
2019-04-06T00:15:21.023Z,25.50
2019-04-06T00:17:48.507Z,26.35
2019-04-06T00:20:16.202Z,25.60
2019-04-06T00:22:43.926Z,26.57
2019-04-06T00:25:12.422Z,27.90
2019-04-06T00:27:40.042Z,28.10
2019-04-06T00:30:08.724Z,28.05
2019-04-06T00:32:42.665Z,26.30
2019-04-06T00:35:10.841Z,27.52
2019-04-06T00:37:38.388Z,27.90
2019-04-06T00:40:06.566Z,26.85
2019-04-06T00:42:34.209Z,27.85
2019-04-06T00:45:01.805Z,28.45
2019-04-06T00:47:29.880Z,27.95
2019-04-06T00:49:57.932Z,27.62
2019-04-06T00:52:25.914Z,29.02
2019-04-06T00:54:53.436Z,27.58
2019-04-06T00:57:21.031Z,27.50
2019-04-06T00:59:51.347Z,27.87
2019-04-06T01:02:18.946Z,27.00
2019-04-06T01:04:46.652Z,28.17
2019-04-06T01:07:15.005Z,27.17
2019-04-06T01:09:43.026Z,26.42
2019-04-06T01:12:10.469Z,27.27
2019-04-06T01:14:38.193Z,26.20
2019-04-06T01:17:05.781Z,28.25
2019-04-06T01:19:35.357Z,26.60
2019-04-06T01:22:03.235Z,27.60
2019-04-06T01:24:31.039Z,26.77
2019-04-06T01:26:59.541Z,26.35
2019-04-06T01:29:27.680Z,27.17
2019-04-06T01:31:55.708Z,27.07
2019-04-06T01:34:23.295Z,26.77
2019-04-06T01:36:51.384Z,27.45
2019-04-06T01:39:19.143Z,27.17
2019-04-06T01:41:46.925Z,26.05
2019-04-06T01:44:15.156Z,26.80
2019-04-06T01:46:42.587Z,27.37
2019-04-06T01:49:10.169Z,26.50
2019-04-06T01:51:37.681Z,27.00
2019-04-06T01:54:05.231Z,26.80
2019-04-06T01:56:32.915Z,26.07
2019-04-06T01:59:00.626Z,26.37
2019-04-06T02:01:41.249Z,26.23
2019-04-06T02:04:08.965Z,25.85
2019-04-06T02:06:38.177Z,27.25
2019-04-06T02:09:06.048Z,27.25
2019-04-06T02:11:34.027Z,26.97
2019-04-06T02:14:01.464Z,25.27
2019-04-06T02:16:29.300Z,25.48
2019-04-06T02:18:56.889Z,25.92
2019-04-06T02:21:26.246Z,25.77
2019-04-06T02:23:53.843Z,25.70
2019-04-06T02:26:30.136Z,25.62
2019-04-06T02:28:50.704Z,25.90
2019-04-06T02:31:28.127Z,23.80
2019-04-06T02:34:11.602Z,25.12
2019-04-06T02:36:58.094Z,24.82
2019-04-06T02:39:45.086Z,26.00
2019-04-06T02:42:17.294Z,25.35
2019-04-06T02:44:45.261Z,25.08
2019-04-06T02:47:13.771Z,25.25
2019-04-06T02:49:41.203Z,26.35
2019-04-06T02:52:09.347Z,25.77
2019-04-06T02:54:36.927Z,25.50
2019-04-06T02:57:04.627Z,24.65
2019-04-06T02:59:32.243Z,25.88
2019-04-06T03:01:59.909Z,25.60
2019-04-06T03:04:27.845Z,24.63
2019-04-06T03:06:56.165Z,24.47
2019-04-06T03:09:23.748Z,26.23
2019-04-06T03:11:51.292Z,24.92
2019-04-06T03:14:19.067Z,25.57
2019-04-06T03:16:46.494Z,25.92
2019-04-06T03:19:13.889Z,25.60
2019-04-06T03:21:41.918Z,24.25
2019-04-06T03:24:09.698Z,24.35
2019-04-06T03:26:37.185Z,23.30
2019-04-06T03:29:04.813Z,25.10
2019-04-06T03:31:32.746Z,24.72
2019-04-06T03:34:00.854Z,25.90
2019-04-06T03:36:28.491Z,25.05
2019-04-06T03:38:56.108Z,26.62
2019-04-06T03:41:23.994Z,26.77
2019-04-06T03:43:51.876Z,26.05
2019-04-06T03:46:19.571Z,24.98
2019-04-06T03:48:47.273Z,25.72
2019-04-06T03:51:14.781Z,28.62
2019-04-06T03:53:42.658Z,25.72
2019-04-06T03:56:11.946Z,27.30
2019-04-06T03:58:39.862Z,27.48
2019-04-06T04:01:07.296Z,26.50
2019-04-06T04:03:35.038Z,26.33
2019-04-06T04:06:02.680Z,27.35
2019-04-06T04:08:30.353Z,28.10
2019-04-06T04:10:59.506Z,27.77
2019-04-06T04:13:27.109Z,25.90
2019-04-06T04:15:57.205Z,26.65
2019-04-06T04:18:25.913Z,25.88
2019-04-06T04:20:53.493Z,27.52
2019-04-06T04:23:21.003Z,26.42
2019-04-06T04:25:49.019Z,27.37
2019-04-06T04:28:17.356Z,27.45
2019-04-06T04:30:44.863Z,27.32
2019-04-06T04:33:14.185Z,28.40
2019-04-06T04:35:41.956Z,27.02
2019-04-06T04:38:09.653Z,27.50
2019-04-06T04:40:38.096Z,27.13
2019-04-06T04:43:07.187Z,27.05
2019-04-06T04:45:34.730Z,27.55
2019-04-06T04:48:02.390Z,26.52
2019-04-06T04:50:30.153Z,27.20
2019-04-06T04:52:57.852Z,27.32
2019-04-06T04:55:26.008Z,27.37
2019-04-06T04:57:54.247Z,27.15
2019-04-06T05:00:22.187Z,27.37
2019-04-06T05:02:50.295Z,26.55
2019-04-06T05:05:17.840Z,26.82
2019-04-06T05:07:45.384Z,25.85
2019-04-06T05:10:14.687Z,26.68
2019-04-06T05:12:44.098Z,29.77
2019-04-06T05:15:14.915Z,28.07
2019-04-06T05:17:42.489Z,30.43
2019-04-06T05:20:10.481Z,30.17
2019-04-06T05:22:38.540Z,32.10
2019-04-06T05:25:07.268Z,30.43
2019-04-06T05:27:34.914Z,30.70
2019-04-06T05:30:03.453Z,30.68
2019-04-06T05:32:31.044Z,28.70
2019-04-06T05:35:00.122Z,28.57
2019-04-06T05:37:27.940Z,30.35
2019-04-06T05:39:55.666Z,28.32
2019-04-06T05:42:23.377Z,27.20
2019-04-06T05:44:51.375Z,26.33
2019-04-06T05:47:19.301Z,28.73
2019-04-06T05:49:47.355Z,27.70
2019-04-06T05:52:15.272Z,28.40
2019-04-06T05:54:43.784Z,29.07
2019-04-06T05:57:11.649Z,26.97
2019-04-06T05:59:40.970Z,28.23
2019-04-06T06:02:09.958Z,28.98
2019-04-06T06:04:40.277Z,30.27
2019-04-06T06:07:08.147Z,29.30
2019-04-06T06:09:36.414Z,30.08
2019-04-06T06:12:03.944Z,28.77
2019-04-06T06:14:31.601Z,29.57
2019-04-06T06:16:59.200Z,30.70
2019-04-06T06:19:27.735Z,30.48
2019-04-06T06:21:55.458Z,29.60
2019-04-06T06:24:23.279Z,29.75
2019-04-06T06:26:51.387Z,30.60
2019-04-06T06:29:19.435Z,33.83
2019-04-06T06:31:47.413Z,31.52
2019-04-06T06:34:14.976Z,30.25
2019-04-06T06:36:42.517Z,30.00
2019-04-06T06:39:10.978Z,26.27
2019-04-06T06:41:39.889Z,31.87
2019-04-06T06:44:07.355Z,29.85
2019-04-06T06:46:36.312Z,33.13
2019-04-06T06:49:03.809Z,32.55
2019-04-06T06:51:31.337Z,28.17
2019-04-06T06:53:59.625Z,32.88
2019-04-06T06:56:29.200Z,29.52
2019-04-06T06:58:57.918Z,30.90
2019-04-06T07:01:26.527Z,31.65
2019-04-06T07:03:54.051Z,33.88
2019-04-06T07:06:24.481Z,31.07
2019-04-06T07:08:52.141Z,32.70
2019-04-06T07:11:20.125Z,29.00
2019-04-06T07:13:47.922Z,36.28
2019-04-06T07:16:15.914Z,31.35
2019-04-06T07:18:44.021Z,31.37
2019-04-06T07:21:11.665Z,36.30
2019-04-06T07:32:28.101Z,31.20
2019-04-06T07:34:56.203Z,33.95
2019-04-06T07:37:23.801Z,38.15
2019-04-06T07:39:52.180Z,30.97
2019-04-06T07:42:19.729Z,35.23
2019-04-06T07:44:47.805Z,35.75
2019-04-06T07:47:15.768Z,34.55
2019-04-06T07:49:46.344Z,32.85
2019-04-06T07:52:15.613Z,36.03
2019-04-06T07:54:43.089Z,35.90
2019-04-06T07:57:10.958Z,32.83
2019-04-06T07:59:38.581Z,34.73
2019-04-06T08:02:07.170Z,36.48
2019-04-06T08:04:35.216Z,34.63
2019-04-06T08:07:03.521Z,34.80
2019-04-06T08:09:33.344Z,35.15
2019-04-06T08:12:01.459Z,31.95
2019-04-06T08:14:29.389Z,34.27
2019-04-06T08:16:56.959Z,31.02
2019-04-06T08:19:24.395Z,33.98
2019-04-06T08:21:52.526Z,31.75
2019-04-06T08:24:20.594Z,30.40
2019-04-06T08:26:49.575Z,31.30
2019-04-06T08:29:18.025Z,30.77
2019-04-06T08:31:45.744Z,28.02
2019-04-06T08:34:14.266Z,30.40
2019-04-06T08:36:42.063Z,31.35
2019-04-06T08:39:10.398Z,28.70
2019-04-06T08:41:38.114Z,29.80
2019-04-06T08:44:06.021Z,26.77
2019-04-06T08:46:33.683Z,27.37
2019-04-06T08:49:02.275Z,28.80
2019-04-06T08:51:31.377Z,27.90
2019-04-06T08:53:59.992Z,26.48
2019-04-06T08:56:28.404Z,26.80
2019-04-06T08:58:55.942Z,25.20
2019-04-06T09:01:23.892Z,27.37
2019-04-06T09:03:52.692Z,29.37
2019-04-06T09:06:21.397Z,25.57
2019-04-06T09:08:50.198Z,25.52
2019-04-06T09:11:19.150Z,23.12
2019-04-06T09:13:46.856Z,26.23
2019-04-06T09:16:15.564Z,25.57
2019-04-06T09:18:44.118Z,27.07
2019-04-06T09:21:12.980Z,26.23
2019-04-06T09:23:40.995Z,25.32
2019-04-06T09:26:08.605Z,25.12
2019-04-06T09:28:37.596Z,27.62
2019-04-06T09:31:05.327Z,24.98
2019-04-06T09:33:34.263Z,19.52
2019-04-06T09:36:02.488Z,23.38
2019-04-06T09:38:30.716Z,20.50
2019-04-06T09:40:58.419Z,25.43
2019-04-06T09:43:26.485Z,22.10
2019-04-06T09:46:26.654Z,19.32
2019-04-06T09:49:12.448Z,22.05
2019-04-06T09:52:10.365Z,21.30
2019-04-06T09:54:50.125Z,20.70
2019-04-06T09:57:30.976Z,23.35
2019-04-06T10:02:38.894Z,19.85
2019-04-06T10:05:38.593Z,22.37
2019-04-06T10:08:24.617Z,22.27
2019-04-06T10:11:14.739Z,19.05
2019-04-06T10:14:08.581Z,21.85
2019-04-06T10:17:02.597Z,17.67
2019-04-06T10:19:46.216Z,22.07
2019-04-06T10:22:38.894Z,15.98
2019-04-06T10:25:15.589Z,17.70
2019-04-06T10:27:51.094Z,12.82
2019-04-06T10:30:49.014Z,17.17
2019-04-06T10:33:28.257Z,16.30
2019-04-06T10:36:14.287Z,15.70
2019-04-06T10:39:01.900Z,19.70
2019-04-06T10:41:53.269Z,19.07
2019-04-06T10:44:39.035Z,15.30
2019-04-06T10:47:14.030Z,18.05
2019-04-06T10:49:49.327Z,18.37
2019-04-06T10:52:36.327Z,16.67
2019-04-06T10:55:25.994Z,16.30
2019-04-06T10:58:10.880Z,18.35
2019-04-06T11:00:55.681Z,14.35
2019-04-06T11:03:48.926Z,16.23
2019-04-06T11:06:32.123Z,13.28
2019-04-06T11:09:18.891Z,13.03
2019-04-06T11:12:05.901Z,13.83
2019-04-06T11:15:03.466Z,13.53
2019-04-06T11:17:51.692Z,14.60
2019-04-06T11:20:34.979Z,14.30
2019-04-06T11:23:33.653Z,14.60
2019-04-06T11:26:19.969Z,12.20
2019-04-06T11:29:04.673Z,11.75
2019-04-06T11:31:53.290Z,12.07
2019-04-06T11:34:41.020Z,11.85
2019-04-06T11:37:22.628Z,13.18
2019-04-06T11:40:12.223Z,12.28
2019-04-06T11:42:57.584Z,9.33
2019-04-06T11:45:36.373Z,10.00
2019-04-06T11:48:29.698Z,12.15
2019-04-06T11:51:14.218Z,9.90
2019-04-06T11:54:04.190Z,10.50
2019-04-06T11:56:45.995Z,11.48
2019-04-06T11:59:49.391Z,10.40
2019-04-06T12:02:42.144Z,8.83
2019-04-06T12:05:23.850Z,9.75
2019-04-06T12:08:17.856Z,11.63
2019-04-06T12:11:11.297Z,10.93
2019-04-06T12:13:58.482Z,10.20
2019-04-06T12:16:46.005Z,11.80
2019-04-06T12:19:33.208Z,12.00
2019-04-06T12:22:22.832Z,9.53
2019-04-06T12:25:09.421Z,11.22
2019-04-06T12:28:00.253Z,10.25
2019-04-06T12:30:38.689Z,9.58
2019-04-06T12:33:40.194Z,10.50
2019-04-06T12:36:15.835Z,9.60
2019-04-06T12:39:21.354Z,9.70
2019-04-06T12:42:08.344Z,10.20
2019-04-06T12:44:55.500Z,9.50
2019-04-06T12:47:41.251Z,9.15
2019-04-06T12:50:26.378Z,9.68
2019-04-06T12:53:26.372Z,9.63
2019-04-06T12:56:20.888Z,9.70
2019-04-06T12:58:58.462Z,10.45
2019-04-06T13:01:43.988Z,10.53
2019-04-06T13:04:30.934Z,8.78
2019-04-06T13:07:27.225Z,9.13
2019-04-06T13:10:14.478Z,9.75
2019-04-06T13:13:11.218Z,9.35
2019-04-06T13:16:06.562Z,9.88
2019-04-06T13:18:56.720Z,9.55
2019-04-06T13:21:49.837Z,10.20
2019-04-06T13:24:34.561Z,10.45
2019-04-06T13:27:24.412Z,9.83
2019-04-06T13:30:00.991Z,9.10
2019-04-06T13:32:38.984Z,8.60
2019-04-06T13:35:25.278Z,8.95
2019-04-06T13:38:00.511Z,8.90
2019-04-06T13:40:46.391Z,8.68
2019-04-06T13:43:40.943Z,9.73
2019-04-06T13:46:42.979Z,9.48
2019-04-06T13:49:28.746Z,9.55
2019-04-06T13:52:09.478Z,8.70
2019-04-06T13:54:56.535Z,10.13
2019-04-06T13:57:43.690Z,8.38
2019-04-06T14:00:30.200Z,8.45
2019-04-06T14:03:15.958Z,9.60
2019-04-06T14:06:15.348Z,8.80
2019-04-06T14:08:58.716Z,9.15
2019-04-06T14:11:41.936Z,10.78
2019-04-06T14:14:29.907Z,8.45
2019-04-06T14:17:25.080Z,8.58
2019-04-06T14:20:24.922Z,8.73
2019-04-06T14:23:11.928Z,8.83
2019-04-06T14:26:11.127Z,9.50
2019-04-06T14:28:52.225Z,9.98
2019-04-06T14:31:41.113Z,9.35
2019-04-06T14:34:22.932Z,8.70
2019-04-06T14:37:22.545Z,8.90
2019-04-06T14:40:08.874Z,10.00
2019-04-06T14:42:59.511Z,8.38
2019-04-06T14:45:45.464Z,8.73
2019-04-06T14:48:24.489Z,8.58
2019-04-06T14:51:09.998Z,8.50
2019-04-06T14:53:46.244Z,7.85
2019-04-06T14:56:25.447Z,8.55
2019-04-06T14:59:12.591Z,8.58
2019-04-06T15:01:57.828Z,8.75
2019-04-06T15:04:31.098Z,8.98
2019-04-06T15:07:24.403Z,8.55
2019-04-06T15:09:58.136Z,9.05
2019-04-06T15:12:43.544Z,9.28
2019-04-06T15:15:36.688Z,8.95
2019-04-06T15:18:16.115Z,9.05
2019-04-06T15:20:59.727Z,7.20
2019-04-06T15:23:37.626Z,9.05
2019-04-06T15:26:20.673Z,8.15
2019-04-06T15:29:08.299Z,7.90
2019-04-06T15:32:01.028Z,7.15
2019-04-06T15:34:45.567Z,8.90
2019-04-06T15:37:36.544Z,7.58
2019-04-06T15:40:33.356Z,6.53
2019-04-06T15:43:20.292Z,7.42
2019-04-06T15:46:07.531Z,8.30
2019-04-06T15:48:57.910Z,7.58
2019-04-06T15:51:33.813Z,6.95
2019-04-06T15:54:19.840Z,5.75
2019-04-06T15:56:56.529Z,7.70
2019-04-06T15:59:46.167Z,7.08
2019-04-06T16:02:31.616Z,7.10
2019-04-06T16:05:19.129Z,8.30
2019-04-06T16:08:24.536Z,7.00
2019-04-06T16:11:20.804Z,7.00
2019-04-06T16:14:13.723Z,7.58
2019-04-06T16:16:48.009Z,7.70
2019-04-06T16:19:22.415Z,8.15
2019-04-06T16:22:12.671Z,7.55
2019-04-06T16:24:50.569Z,7.97
2019-04-06T16:27:25.656Z,8.08
2019-04-06T16:30:11.349Z,7.85
2019-04-06T16:33:09.053Z,8.70
2019-04-06T16:35:48.406Z,8.20
2019-04-06T16:38:38.706Z,9.75
2019-04-06T16:41:29.086Z,9.25
2019-04-06T16:44:10.258Z,10.55
2019-04-06T16:46:55.975Z,9.70
2019-04-06T16:49:41.381Z,10.93
2019-04-06T16:52:32.605Z,9.28
2019-04-06T16:55:17.764Z,10.13
2019-04-06T16:58:03.287Z,9.90
2019-04-06T17:00:50.755Z,9.68
2019-04-06T17:03:34.179Z,9.00
2019-04-06T17:06:20.418Z,8.60
2019-04-06T17:08:56.638Z,9.65
2019-04-06T17:11:42.345Z,8.45
2019-04-06T17:14:34.920Z,7.87
2019-04-06T17:17:22.125Z,8.33
2019-04-06T17:20:11.841Z,7.83
2019-04-06T17:23:02.058Z,7.47
2019-04-06T17:25:47.991Z,7.08
2019-04-06T17:28:34.080Z,7.50
2019-04-06T17:31:09.811Z,7.67
2019-04-06T17:33:51.423Z,7.03
2019-04-06T17:36:28.701Z,7.40
2019-04-06T17:39:14.502Z,7.50
2019-04-06T17:42:19.943Z,6.28
2019-04-06T17:45:10.377Z,7.70
2019-04-06T17:48:10.092Z,7.55
2019-04-06T17:51:11.611Z,7.30
2019-04-06T17:53:46.540Z,7.53
2019-04-06T17:56:36.112Z,7.60
2019-04-06T17:59:24.918Z,6.90
2019-04-06T18:02:21.349Z,6.22
2019-04-06T18:05:08.992Z,6.65
2019-04-06T18:07:59.380Z,6.53
2019-04-06T18:10:58.749Z,6.55
2019-04-06T18:13:48.910Z,6.08
2019-04-06T18:16:18.748Z,8.38
2019-04-06T18:18:46.684Z,7.17
2019-04-06T18:21:14.550Z,6.50
2019-04-06T18:23:42.278Z,6.78
2019-04-06T18:26:10.402Z,7.10
2019-04-06T18:28:38.204Z,7.30
2019-04-06T18:31:12.477Z,6.37
2019-04-06T18:33:40.246Z,6.45
2019-04-06T18:36:08.650Z,6.80
2019-04-06T18:38:43.280Z,6.42
2019-04-06T18:41:11.817Z,5.95
2019-04-06T18:43:40.531Z,5.58
2019-04-06T18:46:08.347Z,6.25
2019-04-06T18:48:39.473Z,5.95
2019-04-06T18:51:07.825Z,5.87
2019-04-06T18:53:35.761Z,6.00
2019-04-06T18:56:04.244Z,5.35
2019-04-06T18:58:31.707Z,5.87
2019-04-06T19:00:59.804Z,5.83
2019-04-06T19:03:27.582Z,5.92
2019-04-06T19:05:56.206Z,6.75
2019-04-06T19:08:23.758Z,7.03
2019-04-06T19:10:52.570Z,7.35
2019-04-06T19:13:20.742Z,7.40
2019-04-06T19:15:49.001Z,6.28
2019-04-06T19:18:16.826Z,6.22
2019-04-06T19:20:44.439Z,6.17
2019-04-06T19:23:13.777Z,6.37
2019-04-06T19:25:42.125Z,6.03
2019-04-06T19:28:10.256Z,6.12
2019-04-06T19:30:38.583Z,6.50
2019-04-06T19:33:06.749Z,6.87
2019-04-06T19:35:35.538Z,6.60
2019-04-06T19:38:03.508Z,7.22
2019-04-06T19:40:31.937Z,6.53
2019-04-06T19:43:01.748Z,6.50
2019-04-06T19:45:30.482Z,5.90
2019-04-06T19:47:58.670Z,5.80
2019-04-06T19:50:27.227Z,6.17
2019-04-06T19:52:55.238Z,5.72
2019-04-06T19:55:23.594Z,5.75
2019-04-06T19:57:51.739Z,5.10
2019-04-06T20:00:20.309Z,5.40
2019-04-06T20:02:48.328Z,5.20
2019-04-06T20:05:16.698Z,5.10
2019-04-06T20:07:44.582Z,5.20
2019-04-06T20:10:13.932Z,4.87
2019-04-06T20:12:41.612Z,5.03
2019-04-06T20:15:09.281Z,4.62
2019-04-06T20:17:37.478Z,4.90
2019-04-06T20:20:05.609Z,4.30
2019-04-06T20:22:34.124Z,4.53
2019-04-06T20:25:02.184Z,4.30
2019-04-06T20:27:30.605Z,4.17
2019-04-06T20:29:58.750Z,4.25
2019-04-06T20:32:28.311Z,4.33
2019-04-06T20:34:55.892Z,4.10
2019-04-06T20:37:25.194Z,3.42
2019-04-06T20:39:54.162Z,3.80
2019-04-06T20:42:26.871Z,3.37
2019-04-06T20:44:54.921Z,3.40
2019-04-06T20:47:23.183Z,3.30
2019-04-06T20:49:50.386Z,3.85
2019-04-06T20:52:18.328Z,3.25
2019-04-06T20:54:46.213Z,3.67
2019-04-06T20:57:15.520Z,3.95
2019-04-06T20:59:44.805Z,3.52
2019-04-06T21:02:12.951Z,3.37
2019-04-06T21:04:41.079Z,3.47
2019-04-06T21:07:09.500Z,3.30
2019-04-06T21:09:37.481Z,3.17
2019-04-06T21:12:05.275Z,2.80
2019-04-06T21:14:33.237Z,2.85
2019-04-06T21:17:01.433Z,2.70
2019-04-06T21:19:30.388Z,3.00
2019-04-06T21:21:59.012Z,2.80
2019-04-06T21:24:28.277Z,2.47
2019-04-06T21:26:55.808Z,2.85
2019-04-06T21:29:23.498Z,3.02
2019-04-06T21:31:51.935Z,3.17
2019-04-06T21:34:19.631Z,3.15
2019-04-06T21:36:47.314Z,2.60
2019-04-06T21:39:14.949Z,2.83
2019-04-06T21:41:42.977Z,2.80
2019-04-06T21:44:12.876Z,2.90
2019-04-06T21:46:41.295Z,3.00
2019-04-06T21:49:09.635Z,2.77
2019-04-06T21:51:37.919Z,2.50
2019-04-06T21:54:06.690Z,2.90
2019-04-06T21:56:35.915Z,3.05
2019-04-06T21:59:04.064Z,3.05
2019-04-06T22:01:31.908Z,2.60
2019-04-06T22:03:59.855Z,2.80
2019-04-06T22:06:27.513Z,3.10
2019-04-06T22:08:55.201Z,3.35
2019-04-06T22:11:24.038Z,2.83
2019-04-06T22:13:52.237Z,3.30
2019-04-06T22:16:20.137Z,3.45
2019-04-06T22:18:47.458Z,3.10
2019-04-06T22:21:16.263Z,3.62
2019-04-06T22:23:45.975Z,2.70
2019-04-06T22:26:14.553Z,3.30
2019-04-06T22:28:42.398Z,2.50
2019-04-06T22:31:09.971Z,3.00
2019-04-06T22:33:38.218Z,2.65
2019-04-06T22:36:06.644Z,2.58
2019-04-06T22:38:34.314Z,2.60
2019-04-06T22:41:03.903Z,2.60
2019-04-06T22:43:31.876Z,2.67
2019-04-06T22:45:59.920Z,2.90
2019-04-06T22:48:28.091Z,3.20
2019-04-06T22:50:55.627Z,3.42
2019-04-06T22:53:23.550Z,3.10
2019-04-06T22:55:51.160Z,2.85
2019-04-06T22:58:18.706Z,2.92
2019-04-06T23:00:50.984Z,3.27
2019-04-06T23:03:32.365Z,3.22
2019-04-06T23:06:04.027Z,3.40
2019-04-06T23:08:31.616Z,3.00
2019-04-06T23:10:59.075Z,3.27
2019-04-06T23:13:27.912Z,3.00
2019-04-06T23:15:56.413Z,3.27
2019-04-06T23:18:25.692Z,3.40
2019-04-06T23:20:53.855Z,3.60
2019-04-06T23:23:22.053Z,3.58
2019-04-06T23:25:49.543Z,3.52
2019-04-06T23:28:16.945Z,3.90
2019-04-06T23:30:45.260Z,3.77
2019-04-06T23:33:13.196Z,3.83
2019-04-06T23:35:41.269Z,4.35
2019-04-06T23:38:09.094Z,4.20
2019-04-06T23:40:36.736Z,3.70
2019-04-06T23:43:04.385Z,3.67
2019-04-06T23:45:32.467Z,3.35
2019-04-06T23:48:00.692Z,3.50
2019-04-06T23:50:28.386Z,2.90
2019-04-06T23:52:56.260Z,3.22
2019-04-06T23:55:23.932Z,3.55
2019-04-06T23:57:51.502Z,3.30
